VHHFO WAMM-WAFW
Flight info
| Callsign | VHHFO |
|---|---|
| Flight time | 0h 50m |
| Altitude | 24000 |
| Route | LUANG W32 ENTEG |
| Aircraft | B350/L-SBGRW/S |
Departure
| Time | 2026-04-30 06:25 |
|---|---|
| Airport | Sam Ratulangi International Airport (WAMM) |
Arrival
| Time | 2026-04-30 07:15 |
|---|---|
| Airport | Syukuran Aminuddin Amir Airport (WAFW) |
| Time | Latitude | Longitude | Altitude | Speed | Heading |
|---|---|---|---|---|---|
| 2026-04-30 06:19 | 1.54148 | 124.92353 | 333 ft | 0 kts | 274° |
| 2026-04-30 06:24 | 1.54147 | 124.92350 | 333 ft | 1 kts | 241° |
| 2026-04-30 06:24 | 1.54134 | 124.92382 | 331 ft | 13 kts | 101° |
| 2026-04-30 06:24 | 1.54139 | 124.92515 | 333 ft | 25 kts | 87° |
| 2026-04-30 06:24 | 1.54209 | 124.92605 | 331 ft | 21 kts | 0° |
| 2026-04-30 06:25 | 1.54589 | 124.92618 | 333 ft | 92 kts | 1° |
| 2026-04-30 06:25 | 1.55406 | 124.92657 | 414 ft | 136 kts | 359° |
| 2026-04-30 06:25 | 1.56412 | 124.92685 | 917 ft | 151 kts | 360° |
| 2026-04-30 06:25 | 1.57504 | 124.92598 | 1446 ft | 161 kts | 357° |
| 2026-04-30 06:26 | 1.58622 | 124.92548 | 2070 ft | 162 kts | 348° |
| 2026-04-30 06:26 | 1.59558 | 124.91943 | 2644 ft | 171 kts | 301° |
| 2026-04-30 06:26 | 1.60051 | 124.90846 | 3245 ft | 173 kts | 292° |
| 2026-04-30 06:26 | 1.60475 | 124.89709 | 3841 ft | 176 kts | 291° |
| 2026-04-30 06:27 | 1.60881 | 124.88569 | 4425 ft | 178 kts | 290° |
| 2026-04-30 06:27 | 1.61283 | 124.87392 | 5024 ft | 180 kts | 289° |
| 2026-04-30 06:27 | 1.61680 | 124.86204 | 5619 ft | 181 kts | 289° |
| 2026-04-30 06:27 | 1.62136 | 124.85026 | 6194 ft | 183 kts | 296° |
| 2026-04-30 06:28 | 1.62751 | 124.83907 | 6752 ft | 185 kts | 304° |
| 2026-04-30 06:28 | 1.63772 | 124.83207 | 7304 ft | 184 kts | 354° |
| 2026-04-30 06:28 | 1.64944 | 124.83589 | 7824 ft | 184 kts | 47° |
| 2026-04-30 06:28 | 1.65354 | 124.84753 | 8338 ft | 184 kts | 99° |
| 2026-04-30 06:29 | 1.64701 | 124.85827 | 8834 ft | 187 kts | 139° |
| 2026-04-30 06:29 | 1.63704 | 124.86680 | 9339 ft | 190 kts | 140° |
| 2026-04-30 06:29 | 1.62633 | 124.87424 | 9840 ft | 191 kts | 148° |
| 2026-04-30 06:29 | 1.61496 | 124.88127 | 10347 ft | 193 kts | 148° |
| 2026-04-30 06:30 | 1.60321 | 124.88867 | 10656 ft | 203 kts | 148° |
| 2026-04-30 06:30 | 1.59167 | 124.89604 | 11377 ft | 192 kts | 147° |
| 2026-04-30 06:30 | 1.58047 | 124.90353 | 11803 ft | 199 kts | 146° |
| 2026-04-30 06:30 | 1.56851 | 124.91178 | 11929 ft | 219 kts | 146° |
| 2026-04-30 06:31 | 1.55493 | 124.91996 | 11958 ft | 237 kts | 163° |
| 2026-04-30 06:31 | 1.53818 | 124.92029 | 11973 ft | 250 kts | 189° |
| 2026-04-30 06:31 | 1.52087 | 124.91721 | 11975 ft | 261 kts | 192° |
| 2026-04-30 06:31 | 1.50276 | 124.91347 | 11968 ft | 270 kts | 192° |
| 2026-04-30 06:32 | 1.48412 | 124.90949 | 11938 ft | 277 kts | 193° |
| 2026-04-30 06:32 | 1.46519 | 124.90513 | 11926 ft | 281 kts | 194° |
| 2026-04-30 06:32 | 1.44606 | 124.90055 | 11920 ft | 284 kts | 194° |
| 2026-04-30 06:32 | 1.42678 | 124.89583 | 11916 ft | 286 kts | 194° |
| 2026-04-30 06:33 | 1.40744 | 124.89106 | 11915 ft | 287 kts | 194° |
| 2026-04-30 06:33 | 1.38799 | 124.88623 | 11916 ft | 288 kts | 194° |
| 2026-04-30 06:33 | 1.36851 | 124.88140 | 11917 ft | 289 kts | 194° |
| 2026-04-30 06:33 | 1.34899 | 124.87655 | 11916 ft | 289 kts | 194° |
| 2026-04-30 06:34 | 1.32969 | 124.87176 | 11923 ft | 290 kts | 194° |
| 2026-04-30 06:34 | 1.31012 | 124.86689 | 11915 ft | 291 kts | 194° |
| 2026-04-30 06:34 | 1.29057 | 124.86204 | 12036 ft | 286 kts | 194° |
| 2026-04-30 06:34 | 1.27162 | 124.85743 | 12396 ft | 274 kts | 194° |
| 2026-04-30 06:35 | 1.25341 | 124.85299 | 12809 ft | 265 kts | 194° |
| 2026-04-30 06:35 | 1.23529 | 124.84854 | 12871 ft | 271 kts | 194° |
| 2026-04-30 06:35 | 1.21692 | 124.84401 | 13013 ft | 272 kts | 194° |
| 2026-04-30 06:35 | 1.19875 | 124.83948 | 13289 ft | 268 kts | 194° |
| 2026-04-30 06:36 | 1.18150 | 124.83520 | 13560 ft | 265 kts | 194° |
| 2026-04-30 06:36 | 1.16296 | 124.83060 | 13847 ft | 262 kts | 194° |
| 2026-04-30 06:36 | 1.14555 | 124.82629 | 14118 ft | 260 kts | 194° |
| 2026-04-30 06:36 | 1.12803 | 124.82196 | 14392 ft | 259 kts | 194° |
| 2026-04-30 06:37 | 1.11062 | 124.81765 | 14666 ft | 257 kts | 194° |
| 2026-04-30 06:37 | 1.09328 | 124.81335 | 14945 ft | 256 kts | 194° |
| 2026-04-30 06:37 | 1.07596 | 124.80906 | 15220 ft | 256 kts | 194° |
| 2026-04-30 06:37 | 1.05873 | 124.80480 | 15495 ft | 255 kts | 194° |
| 2026-04-30 06:38 | 1.04152 | 124.80055 | 15771 ft | 254 kts | 194° |
| 2026-04-30 06:38 | 1.02438 | 124.79630 | 16049 ft | 254 kts | 194° |
| 2026-04-30 06:38 | 1.00750 | 124.79212 | 16317 ft | 253 kts | 194° |
| 2026-04-30 06:38 | 0.99042 | 124.78789 | 16593 ft | 252 kts | 194° |
| 2026-04-30 06:39 | 0.97341 | 124.78367 | 16869 ft | 252 kts | 194° |
| 2026-04-30 06:39 | 0.95641 | 124.77947 | 17144 ft | 251 kts | 193° |
| 2026-04-30 06:39 | 0.93947 | 124.77528 | 17421 ft | 251 kts | 193° |
| 2026-04-30 06:39 | 0.92253 | 124.77108 | 17699 ft | 251 kts | 193° |
| 2026-04-30 06:40 | 0.90553 | 124.76688 | 17866 ft | 255 kts | 193° |
| 2026-04-30 06:40 | 0.88801 | 124.76253 | 17888 ft | 264 kts | 193° |
| 2026-04-30 06:40 | 0.87022 | 124.75811 | 17896 ft | 270 kts | 193° |
| 2026-04-30 06:40 | 0.85176 | 124.75353 | 17901 ft | 276 kts | 193° |
| 2026-04-30 06:41 | 0.83296 | 124.74886 | 17902 ft | 280 kts | 194° |
| 2026-04-30 06:41 | 0.81467 | 124.74186 | 17906 ft | 284 kts | 208° |
| 2026-04-30 06:41 | 0.79870 | 124.73003 | 17911 ft | 288 kts | 224° |
| 2026-04-30 06:41 | 0.78631 | 124.71424 | 17909 ft | 291 kts | 238° |
| 2026-04-30 06:42 | 0.77639 | 124.69648 | 17904 ft | 293 kts | 240° |
| 2026-04-30 06:42 | 0.76655 | 124.67855 | 17903 ft | 295 kts | 240° |
| 2026-04-30 06:42 | 0.75683 | 124.66079 | 17903 ft | 296 kts | 240° |
| 2026-04-30 06:42 | 0.74696 | 124.64277 | 17907 ft | 296 kts | 240° |
| 2026-04-30 06:43 | 0.73707 | 124.62467 | 17907 ft | 297 kts | 240° |
| 2026-04-30 06:43 | 0.72715 | 124.60654 | 17908 ft | 298 kts | 240° |
| 2026-04-30 06:43 | 0.71722 | 124.58838 | 17906 ft | 298 kts | 240° |
| 2026-04-30 06:43 | 0.70729 | 124.57022 | 17906 ft | 298 kts | 240° |
| 2026-04-30 06:44 | 0.69733 | 124.55201 | 17911 ft | 299 kts | 240° |
| 2026-04-30 06:44 | 0.68736 | 124.53376 | 17907 ft | 299 kts | 240° |
| 2026-04-30 06:44 | 0.67739 | 124.51552 | 17908 ft | 299 kts | 240° |
| 2026-04-30 06:44 | 0.66753 | 124.49749 | 17908 ft | 300 kts | 240° |
| 2026-04-30 06:45 | 0.65754 | 124.47921 | 17908 ft | 300 kts | 240° |
| 2026-04-30 06:45 | 0.64754 | 124.46091 | 17911 ft | 300 kts | 240° |
| 2026-04-30 06:45 | 0.63753 | 124.44257 | 17905 ft | 301 kts | 240° |
| 2026-04-30 06:45 | 0.62750 | 124.42424 | 17903 ft | 301 kts | 240° |
| 2026-04-30 06:46 | 0.61749 | 124.40593 | 17907 ft | 301 kts | 240° |
| 2026-04-30 06:46 | 0.60746 | 124.38759 | 17908 ft | 301 kts | 240° |
| 2026-04-30 06:46 | 0.59743 | 124.36924 | 17905 ft | 300 kts | 240° |
| 2026-04-30 06:46 | 0.58755 | 124.35118 | 17906 ft | 300 kts | 240° |
| 2026-04-30 06:47 | 0.57750 | 124.33282 | 17905 ft | 301 kts | 240° |
| 2026-04-30 06:47 | 0.56749 | 124.31450 | 17915 ft | 301 kts | 240° |
| 2026-04-30 06:47 | 0.55744 | 124.29614 | 17910 ft | 301 kts | 240° |
| 2026-04-30 06:47 | 0.54711 | 124.27794 | 17909 ft | 301 kts | 236° |
| 2026-04-30 06:48 | 0.53407 | 124.26167 | 17902 ft | 300 kts | 224° |
| 2026-04-30 06:48 | 0.51836 | 124.24802 | 17906 ft | 299 kts | 219° |
| 2026-04-30 06:48 | 0.50304 | 124.23433 | 17903 ft | 300 kts | 221° |
| 2026-04-30 06:48 | 0.48768 | 124.22027 | 17904 ft | 300 kts | 221° |
| 2026-04-30 06:49 | 0.47226 | 124.20629 | 17903 ft | 299 kts | 221° |
| 2026-04-30 06:49 | 0.45679 | 124.19236 | 17905 ft | 299 kts | 221° |
| 2026-04-30 06:49 | 0.44130 | 124.17846 | 17907 ft | 299 kts | 220° |
| 2026-04-30 06:49 | 0.42581 | 124.16459 | 17904 ft | 299 kts | 220° |
| 2026-04-30 06:50 | 0.41030 | 124.15072 | 17907 ft | 299 kts | 220° |
| 2026-04-30 06:50 | 0.39478 | 124.13684 | 17907 ft | 299 kts | 220° |
| 2026-04-30 06:50 | 0.37949 | 124.12317 | 17906 ft | 299 kts | 220° |
| 2026-04-30 06:50 | 0.36399 | 124.10928 | 17903 ft | 299 kts | 220° |
| 2026-04-30 06:51 | 0.34848 | 124.09541 | 17906 ft | 299 kts | 220° |
| 2026-04-30 06:51 | 0.33298 | 124.08154 | 17903 ft | 299 kts | 220° |
| 2026-04-30 06:51 | 0.31747 | 124.06767 | 17900 ft | 299 kts | 220° |
| 2026-04-30 06:51 | 0.30196 | 124.05381 | 17899 ft | 299 kts | 220° |
| 2026-04-30 06:52 | 0.28645 | 124.03992 | 17898 ft | 299 kts | 220° |
| 2026-04-30 06:52 | 0.27114 | 124.02624 | 17898 ft | 299 kts | 220° |
| 2026-04-30 06:52 | 0.25563 | 124.01235 | 17898 ft | 299 kts | 220° |
| 2026-04-30 06:52 | 0.24014 | 123.99851 | 17898 ft | 299 kts | 220° |
| 2026-04-30 06:53 | 0.22465 | 123.98465 | 17898 ft | 299 kts | 220° |
| 2026-04-30 06:53 | 0.20913 | 123.97078 | 17898 ft | 299 kts | 220° |
| 2026-04-30 06:53 | 0.19364 | 123.95691 | 17898 ft | 299 kts | 220° |
| 2026-04-30 06:53 | 0.17810 | 123.94303 | 17898 ft | 299 kts | 220° |
| 2026-04-30 06:54 | 0.16262 | 123.92918 | 17898 ft | 299 kts | 220° |
| 2026-04-30 06:54 | 0.14709 | 123.91529 | 17898 ft | 299 kts | 220° |
| 2026-04-30 06:54 | 0.13182 | 123.90162 | 17898 ft | 299 kts | 220° |
| 2026-04-30 06:54 | 0.11630 | 123.88775 | 17897 ft | 299 kts | 220° |
| 2026-04-30 06:55 | 0.10082 | 123.87389 | 17898 ft | 299 kts | 220° |
| 2026-04-30 06:55 | 0.08529 | 123.86002 | 17898 ft | 299 kts | 220° |
| 2026-04-30 06:55 | 0.06977 | 123.84614 | 17898 ft | 299 kts | 220° |
| 2026-04-30 06:55 | 0.05424 | 123.83229 | 17898 ft | 299 kts | 220° |
| 2026-04-30 06:56 | 0.03868 | 123.81849 | 17898 ft | 299 kts | 220° |
| 2026-04-30 06:56 | 0.02308 | 123.80467 | 17898 ft | 299 kts | 220° |
| 2026-04-30 06:56 | 0.00750 | 123.79089 | 17898 ft | 299 kts | 220° |
| 2026-04-30 06:56 | -0.00789 | 123.77728 | 17898 ft | 299 kts | 220° |
| 2026-04-30 06:57 | -0.02347 | 123.76350 | 17898 ft | 299 kts | 220° |
| 2026-04-30 06:57 | -0.03906 | 123.74971 | 17898 ft | 299 kts | 220° |
| 2026-04-30 06:57 | -0.05465 | 123.73590 | 17898 ft | 299 kts | 220° |
| 2026-04-30 06:57 | -0.07023 | 123.72212 | 17898 ft | 299 kts | 220° |
| 2026-04-30 06:58 | -0.08582 | 123.70834 | 17898 ft | 299 kts | 220° |
| 2026-04-30 06:58 | -0.10141 | 123.69453 | 17898 ft | 299 kts | 220° |
| 2026-04-30 06:58 | -0.11701 | 123.68073 | 17898 ft | 299 kts | 220° |
| 2026-04-30 06:58 | -0.13238 | 123.66713 | 17898 ft | 299 kts | 220° |
| 2026-04-30 06:59 | -0.14801 | 123.65331 | 17898 ft | 299 kts | 220° |
| 2026-04-30 06:59 | -0.16360 | 123.63950 | 17897 ft | 299 kts | 220° |
| 2026-04-30 06:59 | -0.17919 | 123.62572 | 17892 ft | 300 kts | 220° |
| 2026-04-30 06:59 | -0.19477 | 123.61192 | 17891 ft | 300 kts | 220° |
| 2026-04-30 07:00 | -0.21037 | 123.59812 | 17890 ft | 300 kts | 220° |
| 2026-04-30 07:00 | -0.22577 | 123.58449 | 17889 ft | 300 kts | 220° |
| 2026-04-30 07:00 | -0.24137 | 123.57068 | 17889 ft | 300 kts | 220° |
| 2026-04-30 07:00 | -0.25697 | 123.55688 | 17888 ft | 300 kts | 220° |
| 2026-04-30 07:01 | -0.27257 | 123.54308 | 17889 ft | 300 kts | 220° |
| 2026-04-30 07:01 | -0.28816 | 123.52928 | 17889 ft | 300 kts | 220° |
| 2026-04-30 07:01 | -0.30377 | 123.51547 | 17889 ft | 300 kts | 220° |
| 2026-04-30 07:01 | -0.31935 | 123.50167 | 17889 ft | 300 kts | 220° |
| 2026-04-30 07:02 | -0.33496 | 123.48786 | 17889 ft | 300 kts | 220° |
| 2026-04-30 07:02 | -0.35034 | 123.47425 | 17889 ft | 299 kts | 220° |
| 2026-04-30 07:02 | -0.36592 | 123.46046 | 17889 ft | 299 kts | 220° |
| 2026-04-30 07:02 | -0.38150 | 123.44667 | 17888 ft | 299 kts | 220° |
| 2026-04-30 07:03 | -0.39707 | 123.43289 | 17889 ft | 299 kts | 220° |
| 2026-04-30 07:03 | -0.41265 | 123.41910 | 17889 ft | 299 kts | 220° |
| 2026-04-30 07:03 | -0.42824 | 123.40532 | 17889 ft | 299 kts | 220° |
| 2026-04-30 07:03 | -0.44382 | 123.39152 | 17889 ft | 299 kts | 220° |
| 2026-04-30 07:04 | -0.45941 | 123.37774 | 17888 ft | 299 kts | 220° |
| 2026-04-30 07:04 | -0.47497 | 123.36397 | 17645 ft | 307 kts | 220° |
| 2026-04-30 07:04 | -0.49123 | 123.34956 | 17204 ft | 318 kts | 220° |
| 2026-04-30 07:04 | -0.50804 | 123.33465 | 16753 ft | 327 kts | 220° |
| 2026-04-30 07:05 | -0.54253 | 123.30407 | 15852 ft | 335 kts | 221° |
| 2026-04-30 07:05 | -0.56004 | 123.28855 | 15399 ft | 338 kts | 221° |
| 2026-04-30 07:05 | -0.57764 | 123.27297 | 14950 ft | 338 kts | 221° |
| 2026-04-30 07:06 | -0.59481 | 123.25778 | 14506 ft | 328 kts | 221° |
| 2026-04-30 07:06 | -0.61148 | 123.24305 | 14061 ft | 320 kts | 221° |
| 2026-04-30 07:06 | -0.62799 | 123.22846 | 13607 ft | 314 kts | 221° |
| 2026-04-30 07:06 | -0.64421 | 123.21415 | 13159 ft | 309 kts | 221° |
| 2026-04-30 07:07 | -0.66024 | 123.20002 | 12703 ft | 306 kts | 221° |
| 2026-04-30 07:07 | -0.67607 | 123.18602 | 12251 ft | 303 kts | 221° |
| 2026-04-30 07:07 | -0.69177 | 123.17213 | 11802 ft | 300 kts | 221° |
| 2026-04-30 07:07 | -0.70736 | 123.15835 | 11349 ft | 298 kts | 221° |
| 2026-04-30 07:08 | -0.72282 | 123.14470 | 10900 ft | 296 kts | 221° |
| 2026-04-30 07:08 | -0.73806 | 123.13124 | 10399 ft | 296 kts | 221° |
| 2026-04-30 07:08 | -0.75346 | 123.11757 | 9867 ft | 295 kts | 221° |
| 2026-04-30 07:08 | -0.76880 | 123.10402 | 9344 ft | 294 kts | 221° |
| 2026-04-30 07:09 | -0.78405 | 123.09050 | 8811 ft | 291 kts | 221° |
| 2026-04-30 07:09 | -0.79914 | 123.07713 | 8293 ft | 289 kts | 222° |
| 2026-04-30 07:09 | -0.81274 | 123.06259 | 7813 ft | 285 kts | 232° |
| 2026-04-30 07:09 | -0.82401 | 123.04646 | 7365 ft | 281 kts | 237° |
| 2026-04-30 07:10 | -0.83492 | 123.03043 | 6916 ft | 278 kts | 235° |
| 2026-04-30 07:10 | -0.84597 | 123.01465 | 6455 ft | 276 kts | 236° |
| 2026-04-30 07:10 | -0.85653 | 122.99901 | 6023 ft | 275 kts | 236° |
| 2026-04-30 07:10 | -0.86724 | 122.98325 | 5567 ft | 273 kts | 236° |
| 2026-04-30 07:11 | -0.87793 | 122.96767 | 5121 ft | 272 kts | 236° |
| 2026-04-30 07:11 | -0.88852 | 122.95205 | 4667 ft | 270 kts | 236° |
| 2026-04-30 07:11 | -0.89905 | 122.93658 | 4254 ft | 267 kts | 236° |
| 2026-04-30 07:11 | -0.90947 | 122.92137 | 3888 ft | 264 kts | 236° |
| 2026-04-30 07:12 | -0.91977 | 122.90625 | 3546 ft | 263 kts | 236° |
| 2026-04-30 07:12 | -0.92999 | 122.89119 | 3301 ft | 261 kts | 235° |
| 2026-04-30 07:12 | -0.93985 | 122.87662 | 2929 ft | 250 kts | 236° |
| 2026-04-30 07:12 | -0.94936 | 122.86263 | 2552 ft | 239 kts | 235° |
| 2026-04-30 07:13 | -0.95862 | 122.84918 | 2174 ft | 231 kts | 235° |
| 2026-04-30 07:13 | -0.96752 | 122.83614 | 1798 ft | 224 kts | 235° |
| 2026-04-30 07:13 | -0.97610 | 122.82353 | 1499 ft | 216 kts | 235° |
| 2026-04-30 07:13 | -0.98434 | 122.81163 | 1195 ft | 195 kts | 231° |
| 2026-04-30 07:14 | -0.99329 | 122.80292 | 874 ft | 167 kts | 213° |
| 2026-04-30 07:14 | -1.00211 | 122.79732 | 653 ft | 137 kts | 212° |
| 2026-04-30 07:14 | -1.00957 | 122.79205 | 472 ft | 130 kts | 214° |
| 2026-04-30 07:14 | -1.01688 | 122.78701 | 366 ft | 126 kts | 212° |
| 2026-04-30 07:15 | -1.02410 | 122.78204 | 219 ft | 127 kts | 212° |
| 2026-04-30 07:15 | -1.03130 | 122.77706 | 66 ft | 119 kts | 213° |
| 2026-04-30 07:15 | -1.03693 | 122.77319 | 62 ft | 71 kts | 217° |
| 2026-04-30 07:15 | -1.03963 | 122.77138 | 59 ft | 9 kts | 200° |
| 2026-04-30 07:16 | -1.04031 | 122.77183 | 66 ft | 13 kts | 177° |
| 2026-04-30 07:16 | -1.04041 | 122.77168 | 66 ft | 0 kts | 18° |